sensor_id;sensor_type;location;lat;lon;timestamp;P1;durP1;ratioP1;P2;durP2;ratioP2
40629;SDS011;26329;40.388;-3.710;2022-12-11T00:00:32;3.53;;;0.77;;
40629;SDS011;26329;40.388;-3.710;2022-12-11T00:10:34;3.78;;;0.28;;
40629;SDS011;26329;40.388;-3.710;2022-12-11T00:20:37;5.13;;;0.35;;
40629;SDS011;26329;40.388;-3.710;2022-12-11T00:30:40;12.13;;;1.13;;
40629;SDS011;26329;40.388;-3.710;2022-12-11T00:40:42;8.00;;;0.83;;
40629;SDS011;26329;40.388;-3.710;2022-12-11T00:50:45;10.57;;;1.60;;
40629;SDS011;26329;40.388;-3.710;2022-12-11T01:00:46;10.55;;;0.60;;
40629;SDS011;26329;40.388;-3.710;2022-12-11T01:10:49;4.47;;;0.50;;
40629;SDS011;26329;40.388;-3.710;2022-12-11T01:20:51;10.93;;;0.70;;
40629;SDS011;26329;40.388;-3.710;2022-12-11T01:30:53;5.00;;;1.58;;
40629;SDS011;26329;40.388;-3.710;2022-12-11T01:40:55;9.60;;;0.95;;
40629;SDS011;26329;40.388;-3.710;2022-12-11T01:50:57;15.20;;;1.92;;
40629;SDS011;26329;40.388;-3.710;2022-12-11T02:01:03;7.45;;;0.80;;
40629;SDS011;26329;40.388;-3.710;2022-12-11T02:11:38;8.98;;;1.60;;
40629;SDS011;26329;40.388;-3.710;2022-12-11T02:21:41;13.35;;;1.95;;
40629;SDS011;26329;40.388;-3.710;2022-12-11T02:31:59;13.65;;;1.33;;
40629;SDS011;26329;40.388;-3.710;2022-12-11T02:42:06;6.65;;;0.77;;
40629;SDS011;26329;40.388;-3.710;2022-12-11T02:52:09;9.65;;;1.13;;
40629;SDS011;26329;40.388;-3.710;2022-12-11T03:02:12;3.33;;;0.70;;
40629;SDS011;26329;40.388;-3.710;2022-12-11T03:12:33;4.95;;;0.22;;
40629;SDS011;26329;40.388;-3.710;2022-12-11T03:22:44;4.85;;;0.73;;
40629;SDS011;26329;40.388;-3.710;2022-12-11T03:33:14;3.92;;;0.60;;
40629;SDS011;26329;40.388;-3.710;2022-12-11T03:43:25;2.83;;;0.28;;
40629;SDS011;26329;40.388;-3.710;2022-12-11T03:53:32;5.57;;;0.68;;
40629;SDS011;26329;40.388;-3.710;2022-12-11T04:03:37;3.95;;;0.30;;
40629;SDS011;26329;40.388;-3.710;2022-12-11T04:13:41;4.38;;;0.45;;
40629;SDS011;26329;40.388;-3.710;2022-12-11T04:23:45;3.17;;;0.30;;
40629;SDS011;26329;40.388;-3.710;2022-12-11T04:34:07;3.17;;;1.35;;
40629;SDS011;26329;40.388;-3.710;2022-12-11T04:44:10;4.83;;;1.47;;
40629;SDS011;26329;40.388;-3.710;2022-12-11T04:54:13;5.38;;;0.75;;
40629;SDS011;26329;40.388;-3.710;2022-12-11T05:04:16;4.23;;;1.23;;
40629;SDS011;26329;40.388;-3.710;2022-12-11T05:14:19;4.13;;;0.85;;
40629;SDS011;26329;40.388;-3.710;2022-12-11T05:24:22;4.82;;;1.80;;
40629;SDS011;26329;40.388;-3.710;2022-12-11T05:34:25;5.65;;;1.80;;
40629;SDS011;26329;40.388;-3.710;2022-12-11T05:44:27;6.60;;;1.65;;
40629;SDS011;26329;40.388;-3.710;2022-12-11T05:54:29;7.35;;;4.88;;
40629;SDS011;26329;40.388;-3.710;2022-12-11T06:04:33;5.77;;;4.33;;
40629;SDS011;26329;40.388;-3.710;2022-12-11T06:14:36;5.28;;;3.25;;
40629;SDS011;26329;40.388;-3.710;2022-12-11T06:24:42;3.88;;;2.92;;
40629;SDS011;26329;40.388;-3.710;2022-12-11T06:34:45;4.18;;;3.00;;
40629;SDS011;26329;40.388;-3.710;2022-12-11T06:44:50;5.03;;;3.03;;
40629;SDS011;26329;40.388;-3.710;2022-12-11T06:54:52;5.18;;;1.95;;
40629;SDS011;26329;40.388;-3.710;2022-12-11T07:04:55;3.72;;;1.52;;
40629;SDS011;26329;40.388;-3.710;2022-12-11T07:14:57;2.75;;;1.48;;
40629;SDS011;26329;40.388;-3.710;2022-12-11T07:25:02;6.47;;;2.13;;
40629;SDS011;26329;40.388;-3.710;2022-12-11T07:35:05;2.90;;;2.20;;
40629;SDS011;26329;40.388;-3.710;2022-12-11T07:45:07;7.75;;;3.22;;
40629;SDS011;26329;40.388;-3.710;2022-12-11T07:55:09;3.35;;;2.50;;
40629;SDS011;26329;40.388;-3.710;2022-12-11T08:05:11;1.42;;;1.00;;
40629;SDS011;26329;40.388;-3.710;2022-12-11T08:15:13;4.25;;;2.15;;
40629;SDS011;26329;40.388;-3.710;2022-12-11T08:25:16;4.35;;;1.38;;
40629;SDS011;26329;40.388;-3.710;2022-12-11T08:35:18;2.35;;;1.05;;
40629;SDS011;26329;40.388;-3.710;2022-12-11T08:45:20;0.70;;;0.68;;
40629;SDS011;26329;40.388;-3.710;2022-12-11T08:55:22;0.68;;;0.30;;
40629;SDS011;26329;40.388;-3.710;2022-12-11T09:05:24;0.90;;;0.70;;
40629;SDS011;26329;40.388;-3.710;2022-12-11T09:15:26;0.32;;;0.10;;
40629;SDS011;26329;40.388;-3.710;2022-12-11T09:25:27;0.70;;;0.50;;
40629;SDS011;26329;40.388;-3.710;2022-12-11T09:35:29;3.00;;;1.85;;
40629;SDS011;26329;40.388;-3.710;2022-12-11T09:45:30;0.20;;;0.03;;
40629;SDS011;26329;40.388;-3.710;2022-12-11T09:55:39;0.57;;;0.00;;
40629;SDS011;26329;40.388;-3.710;2022-12-11T10:26:21;2.03;;;0.10;;
40629;SDS011;26329;40.388;-3.710;2022-12-11T10:36:33;0.40;;;0.20;;
40629;SDS011;26329;40.388;-3.710;2022-12-11T10:46:38;1.38;;;0.10;;
40629;SDS011;26329;40.388;-3.710;2022-12-11T10:56:41;0.40;;;0.20;;
40629;SDS011;26329;40.388;-3.710;2022-12-11T11:06:59;0.55;;;0.30;;
40629;SDS011;26329;40.388;-3.710;2022-12-11T11:17:15;0.43;;;0.10;;
40629;SDS011;26329;40.388;-3.710;2022-12-11T11:37:37;1.08;;;0.10;;
40629;SDS011;26329;40.388;-3.710;2022-12-11T11:47:50;0.40;;;0.13;;
40629;SDS011;26329;40.388;-3.710;2022-12-11T11:58:17;0.30;;;0.10;;
40629;SDS011;26329;40.388;-3.710;2022-12-11T12:08:36;1.75;;;0.52;;
40629;SDS011;26329;40.388;-3.710;2022-12-11T12:49:44;3.58;;;0.80;;
40629;SDS011;26329;40.388;-3.710;2022-12-11T12:59:52;0.80;;;0.30;;
40629;SDS011;26329;40.388;-3.710;2022-12-11T13:10:03;0.65;;;0.50;;
40629;SDS011;26329;40.388;-3.710;2022-12-11T13:20:19;1.52;;;1.50;;
40629;SDS011;26329;40.388;-3.710;2022-12-11T13:30:23;6.05;;;1.73;;
40629;SDS011;26329;40.388;-3.710;2022-12-11T13:50:33;1.27;;;1.27;;
40629;SDS011;26329;40.388;-3.710;2022-12-11T14:00:36;3.03;;;2.83;;
40629;SDS011;26329;40.388;-3.710;2022-12-11T14:10:38;3.10;;;2.90;;
40629;SDS011;26329;40.388;-3.710;2022-12-11T14:20:41;3.50;;;3.10;;
40629;SDS011;26329;40.388;-3.710;2022-12-11T14:30:48;3.92;;;3.40;;
40629;SDS011;26329;40.388;-3.710;2022-12-11T14:40:52;4.97;;;4.55;;
40629;SDS011;26329;40.388;-3.710;2022-12-11T14:51:02;3.65;;;3.35;;
40629;SDS011;26329;40.388;-3.710;2022-12-11T15:01:20;3.28;;;3.08;;
40629;SDS011;26329;40.388;-3.710;2022-12-11T15:11:30;5.55;;;5.05;;
40629;SDS011;26329;40.388;-3.710;2022-12-11T15:21:34;4.10;;;3.70;;
40629;SDS011;26329;40.388;-3.710;2022-12-11T15:31:37;7.90;;;5.45;;
40629;SDS011;26329;40.388;-3.710;2022-12-11T15:41:40;10.07;;;9.05;;
40629;SDS011;26329;40.388;-3.710;2022-12-11T15:51:43;6.33;;;5.43;;
40629;SDS011;26329;40.388;-3.710;2022-12-11T16:01:45;9.25;;;8.40;;
40629;SDS011;26329;40.388;-3.710;2022-12-11T16:11:47;8.38;;;7.60;;
40629;SDS011;26329;40.388;-3.710;2022-12-11T16:21:50;9.57;;;8.77;;
40629;SDS011;26329;40.388;-3.710;2022-12-11T16:31:52;6.72;;;6.22;;
40629;SDS011;26329;40.388;-3.710;2022-12-11T16:41:54;8.20;;;7.45;;
40629;SDS011;26329;40.388;-3.710;2022-12-11T16:51:56;6.93;;;6.25;;
40629;SDS011;26329;40.388;-3.710;2022-12-11T17:01:58;6.18;;;5.57;;
40629;SDS011;26329;40.388;-3.710;2022-12-11T17:12:00;6.72;;;6.10;;
40629;SDS011;26329;40.388;-3.710;2022-12-11T17:22:02;8.10;;;6.43;;
40629;SDS011;26329;40.388;-3.710;2022-12-11T17:32:04;7.25;;;5.60;;
40629;SDS011;26329;40.388;-3.710;2022-12-11T17:42:07;7.72;;;6.22;;
40629;SDS011;26329;40.388;-3.710;2022-12-11T17:52:09;5.72;;;5.30;;
40629;SDS011;26329;40.388;-3.710;2022-12-11T18:02:10;6.35;;;5.75;;
40629;SDS011;26329;40.388;-3.710;2022-12-11T18:12:13;6.30;;;4.55;;
40629;SDS011;26329;40.388;-3.710;2022-12-11T18:22:14;4.20;;;3.17;;
40629;SDS011;26329;40.388;-3.710;2022-12-11T18:32:16;3.10;;;2.90;;
40629;SDS011;26329;40.388;-3.710;2022-12-11T18:42:19;25.63;;;18.35;;
40629;SDS011;26329;40.388;-3.710;2022-12-11T18:52:21;2.95;;;2.75;;
40629;SDS011;26329;40.388;-3.710;2022-12-11T19:02:22;2.25;;;1.88;;
40629;SDS011;26329;40.388;-3.710;2022-12-11T19:12:24;1.65;;;1.30;;
40629;SDS011;26329;40.388;-3.710;2022-12-11T19:22:26;4.70;;;2.88;;
40629;SDS011;26329;40.388;-3.710;2022-12-11T19:32:27;0.55;;;0.52;;
40629;SDS011;26329;40.388;-3.710;2022-12-11T19:42:30;3.83;;;0.68;;
40629;SDS011;26329;40.388;-3.710;2022-12-11T19:52:33;1.40;;;1.30;;
40629;SDS011;26329;40.388;-3.710;2022-12-11T20:02:35;5.03;;;3.55;;
40629;SDS011;26329;40.388;-3.710;2022-12-11T20:12:37;2.92;;;2.67;;
40629;SDS011;26329;40.388;-3.710;2022-12-11T20:22:39;1.40;;;1.30;;
40629;SDS011;26329;40.388;-3.710;2022-12-11T20:32:41;2.53;;;1.98;;
40629;SDS011;26329;40.388;-3.710;2022-12-11T20:42:44;2.00;;;1.85;;
40629;SDS011;26329;40.388;-3.710;2022-12-11T20:52:46;2.13;;;1.67;;
40629;SDS011;26329;40.388;-3.710;2022-12-11T21:02:49;2.88;;;2.67;;
40629;SDS011;26329;40.388;-3.710;2022-12-11T21:12:51;3.53;;;2.05;;
40629;SDS011;26329;40.388;-3.710;2022-12-11T21:22:53;3.47;;;2.75;;
40629;SDS011;26329;40.388;-3.710;2022-12-11T21:32:59;5.15;;;3.05;;
40629;SDS011;26329;40.388;-3.710;2022-12-11T21:43:01;4.72;;;3.22;;
40629;SDS011;26329;40.388;-3.710;2022-12-11T21:53:03;7.65;;;5.75;;
40629;SDS011;26329;40.388;-3.710;2022-12-11T22:03:06;6.07;;;4.35;;
40629;SDS011;26329;40.388;-3.710;2022-12-11T22:13:07;3.20;;;1.40;;
40629;SDS011;26329;40.388;-3.710;2022-12-11T22:23:11;1.60;;;1.50;;
40629;SDS011;26329;40.388;-3.710;2022-12-11T22:33:15;1.95;;;1.05;;
40629;SDS011;26329;40.388;-3.710;2022-12-11T22:43:17;1.80;;;1.15;;
40629;SDS011;26329;40.388;-3.710;2022-12-11T22:53:19;1.88;;;1.05;;
40629;SDS011;26329;40.388;-3.710;2022-12-11T23:03:21;3.55;;;2.88;;
40629;SDS011;26329;40.388;-3.710;2022-12-11T23:13:23;4.10;;;2.42;;
40629;SDS011;26329;40.388;-3.710;2022-12-11T23:23:25;2.55;;;2.30;;
40629;SDS011;26329;40.388;-3.710;2022-12-11T23:33:29;2.47;;;1.83;;
40629;SDS011;26329;40.388;-3.710;2022-12-11T23:43:34;1.88;;;1.48;;
40629;SDS011;26329;40.388;-3.710;2022-12-11T23:53:40;2.90;;;2.35;;
